sensor_id;sensor_type;location;lat;lon;timestamp;P1;durP1;ratioP1;P2;durP2;ratioP2
71202;SDS011;58929;47.490;19.090;2023-04-03T00:01:08;6.75;;;5.65;;
71202;SDS011;58929;47.490;19.090;2023-04-03T00:03:36;5.80;;;5.00;;
71202;SDS011;58929;47.490;19.090;2023-04-03T00:06:04;8.02;;;5.18;;
71202;SDS011;58929;47.490;19.090;2023-04-03T00:08:33;5.35;;;4.63;;
71202;SDS011;58929;47.490;19.090;2023-04-03T00:11:03;6.85;;;4.90;;
71202;SDS011;58929;47.490;19.090;2023-04-03T00:13:31;6.20;;;5.07;;
71202;SDS011;58929;47.490;19.090;2023-04-03T00:15:59;5.78;;;4.82;;
71202;SDS011;58929;47.490;19.090;2023-04-03T00:18:27;6.43;;;4.82;;
71202;SDS011;58929;47.490;19.090;2023-04-03T00:20:55;5.57;;;4.57;;
71202;SDS011;58929;47.490;19.090;2023-04-03T00:23:23;5.25;;;4.75;;
71202;SDS011;58929;47.490;19.090;2023-04-03T00:25:51;6.47;;;5.07;;
71202;SDS011;58929;47.490;19.090;2023-04-03T00:28:20;7.70;;;5.70;;
71202;SDS011;58929;47.490;19.090;2023-04-03T00:30:49;6.57;;;5.00;;
71202;SDS011;58929;47.490;19.090;2023-04-03T00:33:17;7.18;;;5.25;;
71202;SDS011;58929;47.490;19.090;2023-04-03T00:35:48;7.22;;;4.88;;
71202;SDS011;58929;47.490;19.090;2023-04-03T00:38:17;8.52;;;5.28;;
71202;SDS011;58929;47.490;19.090;2023-04-03T00:40:46;6.80;;;5.32;;
71202;SDS011;58929;47.490;19.090;2023-04-03T00:43:15;7.70;;;6.28;;
71202;SDS011;58929;47.490;19.090;2023-04-03T00:45:45;7.55;;;5.32;;
71202;SDS011;58929;47.490;19.090;2023-04-03T00:48:15;6.47;;;5.60;;
71202;SDS011;58929;47.490;19.090;2023-04-03T00:50:44;7.07;;;5.90;;
71202;SDS011;58929;47.490;19.090;2023-04-03T00:53:13;7.60;;;5.55;;
71202;SDS011;58929;47.490;19.090;2023-04-03T00:55:42;8.70;;;6.28;;
71202;SDS011;58929;47.490;19.090;2023-04-03T00:58:10;5.95;;;4.82;;
71202;SDS011;58929;47.490;19.090;2023-04-03T01:00:40;9.85;;;5.85;;
71202;SDS011;58929;47.490;19.090;2023-04-03T01:03:11;7.85;;;5.82;;
71202;SDS011;58929;47.490;19.090;2023-04-03T01:05:39;7.45;;;5.95;;
71202;SDS011;58929;47.490;19.090;2023-04-03T01:08:08;7.97;;;5.63;;
71202;SDS011;58929;47.490;19.090;2023-04-03T01:10:36;7.03;;;5.18;;
71202;SDS011;58929;47.490;19.090;2023-04-03T01:13:17;8.80;;;6.13;;
71202;SDS011;58929;47.490;19.090;2023-04-03T01:15:45;6.55;;;5.40;;
71202;SDS011;58929;47.490;19.090;2023-04-03T01:18:15;6.55;;;5.18;;
71202;SDS011;58929;47.490;19.090;2023-04-03T01:20:49;6.68;;;4.38;;
71202;SDS011;58929;47.490;19.090;2023-04-03T01:23:23;8.05;;;5.13;;
71202;SDS011;58929;47.490;19.090;2023-04-03T01:25:53;8.07;;;5.18;;
71202;SDS011;58929;47.490;19.090;2023-04-03T01:28:22;8.02;;;4.68;;
71202;SDS011;58929;47.490;19.090;2023-04-03T01:30:51;6.60;;;4.97;;
71202;SDS011;58929;47.490;19.090;2023-04-03T01:33:22;5.93;;;4.68;;
71202;SDS011;58929;47.490;19.090;2023-04-03T01:35:50;6.90;;;5.38;;
71202;SDS011;58929;47.490;19.090;2023-04-03T01:38:18;5.65;;;4.47;;
71202;SDS011;58929;47.490;19.090;2023-04-03T01:40:47;6.90;;;4.78;;
71202;SDS011;58929;47.490;19.090;2023-04-03T01:43:15;6.35;;;4.90;;
71202;SDS011;58929;47.490;19.090;2023-04-03T01:45:43;6.28;;;4.90;;
71202;SDS011;58929;47.490;19.090;2023-04-03T01:48:13;7.50;;;4.35;;
71202;SDS011;58929;47.490;19.090;2023-04-03T01:50:43;5.72;;;4.60;;
71202;SDS011;58929;47.490;19.090;2023-04-03T01:53:11;6.63;;;4.82;;
71202;SDS011;58929;47.490;19.090;2023-04-03T01:55:39;5.97;;;4.47;;
71202;SDS011;58929;47.490;19.090;2023-04-03T01:58:07;8.52;;;4.43;;
71202;SDS011;58929;47.490;19.090;2023-04-03T02:00:35;6.05;;;4.90;;
71202;SDS011;58929;47.490;19.090;2023-04-03T02:03:04;5.78;;;4.88;;
71202;SDS011;58929;47.490;19.090;2023-04-03T02:05:33;6.88;;;4.13;;
71202;SDS011;58929;47.490;19.090;2023-04-03T02:08:03;6.18;;;4.57;;
71202;SDS011;58929;47.490;19.090;2023-04-03T02:10:31;6.50;;;4.32;;
71202;SDS011;58929;47.490;19.090;2023-04-03T02:12:59;5.80;;;4.70;;
71202;SDS011;58929;47.490;19.090;2023-04-03T02:15:27;5.97;;;4.18;;
71202;SDS011;58929;47.490;19.090;2023-04-03T02:17:55;6.20;;;4.18;;
71202;SDS011;58929;47.490;19.090;2023-04-03T02:20:23;5.53;;;3.85;;
71202;SDS011;58929;47.490;19.090;2023-04-03T02:22:51;5.07;;;3.80;;
71202;SDS011;58929;47.490;19.090;2023-04-03T02:25:20;8.55;;;4.25;;
71202;SDS011;58929;47.490;19.090;2023-04-03T02:27:49;6.30;;;4.78;;
71202;SDS011;58929;47.490;19.090;2023-04-03T02:30:17;4.88;;;3.90;;
71202;SDS011;58929;47.490;19.090;2023-04-03T02:32:45;5.40;;;4.57;;
71202;SDS011;58929;47.490;19.090;2023-04-03T02:35:14;6.40;;;4.10;;
71202;SDS011;58929;47.490;19.090;2023-04-03T02:37:42;5.40;;;4.38;;
71202;SDS011;58929;47.490;19.090;2023-04-03T02:40:10;7.30;;;4.78;;
71202;SDS011;58929;47.490;19.090;2023-04-03T02:42:40;6.70;;;4.05;;
71202;SDS011;58929;47.490;19.090;2023-04-03T02:45:08;4.82;;;4.00;;
71202;SDS011;58929;47.490;19.090;2023-04-03T02:47:36;6.47;;;4.50;;
71202;SDS011;58929;47.490;19.090;2023-04-03T02:50:05;7.20;;;4.70;;
71202;SDS011;58929;47.490;19.090;2023-04-03T02:52:33;5.97;;;4.40;;
71202;SDS011;58929;47.490;19.090;2023-04-03T02:55:01;4.93;;;3.95;;
71202;SDS011;58929;47.490;19.090;2023-04-03T02:57:30;4.93;;;3.75;;
71202;SDS011;58929;47.490;19.090;2023-04-03T02:59:59;6.45;;;4.47;;
71202;SDS011;58929;47.490;19.090;2023-04-03T03:02:27;5.53;;;4.18;;
71202;SDS011;58929;47.490;19.090;2023-04-03T03:04:55;6.95;;;3.90;;
71202;SDS011;58929;47.490;19.090;2023-04-03T03:07:23;6.28;;;4.43;;
71202;SDS011;58929;47.490;19.090;2023-04-03T03:09:52;7.95;;;3.88;;
71202;SDS011;58929;47.490;19.090;2023-04-03T03:12:20;6.95;;;4.03;;
71202;SDS011;58929;47.490;19.090;2023-04-03T03:14:49;4.28;;;3.88;;
71202;SDS011;58929;47.490;19.090;2023-04-03T03:17:19;5.78;;;4.07;;
71202;SDS011;58929;47.490;19.090;2023-04-03T03:19:46;5.45;;;4.00;;
71202;SDS011;58929;47.490;19.090;2023-04-03T03:22:15;6.32;;;4.18;;
71202;SDS011;58929;47.490;19.090;2023-04-03T03:24:43;5.70;;;4.10;;
71202;SDS011;58929;47.490;19.090;2023-04-03T03:27:11;6.32;;;4.43;;
71202;SDS011;58929;47.490;19.090;2023-04-03T03:29:39;4.65;;;3.50;;
71202;SDS011;58929;47.490;19.090;2023-04-03T03:32:08;4.80;;;3.90;;
71202;SDS011;58929;47.490;19.090;2023-04-03T03:34:37;4.40;;;3.60;;
71202;SDS011;58929;47.490;19.090;2023-04-03T03:37:05;5.15;;;3.85;;
71202;SDS011;58929;47.490;19.090;2023-04-03T03:39:33;9.45;;;4.45;;
71202;SDS011;58929;47.490;19.090;2023-04-03T03:42:01;3.83;;;3.15;;
71202;SDS011;58929;47.490;19.090;2023-04-03T03:44:30;5.07;;;4.07;;
71202;SDS011;58929;47.490;19.090;2023-04-03T03:46:58;6.18;;;4.18;;
71202;SDS011;58929;47.490;19.090;2023-04-03T03:49:27;6.38;;;4.20;;
71202;SDS011;58929;47.490;19.090;2023-04-03T03:51:56;4.95;;;3.85;;
71202;SDS011;58929;47.490;19.090;2023-04-03T03:54:24;5.05;;;4.40;;
71202;SDS011;58929;47.490;19.090;2023-04-03T03:56:52;4.60;;;3.88;;
71202;SDS011;58929;47.490;19.090;2023-04-03T03:59:23;5.95;;;3.75;;
71202;SDS011;58929;47.490;19.090;2023-04-03T04:01:53;5.45;;;3.97;;
71202;SDS011;58929;47.490;19.090;2023-04-03T04:04:21;5.10;;;4.05;;
71202;SDS011;58929;47.490;19.090;2023-04-03T04:06:49;5.95;;;4.38;;
71202;SDS011;58929;47.490;19.090;2023-04-03T04:09:20;5.32;;;4.30;;
71202;SDS011;58929;47.490;19.090;2023-04-03T04:11:48;8.00;;;4.20;;
71202;SDS011;58929;47.490;19.090;2023-04-03T04:14:17;7.65;;;4.35;;
71202;SDS011;58929;47.490;19.090;2023-04-03T04:16:47;6.25;;;4.10;;
71202;SDS011;58929;47.490;19.090;2023-04-03T04:19:20;5.80;;;4.20;;
71202;SDS011;58929;47.490;19.090;2023-04-03T04:21:48;6.22;;;4.35;;
71202;SDS011;58929;47.490;19.090;2023-04-03T04:24:17;6.40;;;4.28;;
71202;SDS011;58929;47.490;19.090;2023-04-03T04:26:48;5.78;;;4.30;;
71202;SDS011;58929;47.490;19.090;2023-04-03T04:29:20;5.07;;;3.97;;
71202;SDS011;58929;47.490;19.090;2023-04-03T04:31:49;5.90;;;4.22;;
71202;SDS011;58929;47.490;19.090;2023-04-03T04:34:17;6.15;;;4.30;;
71202;SDS011;58929;47.490;19.090;2023-04-03T04:36:46;6.03;;;4.38;;
71202;SDS011;58929;47.490;19.090;2023-04-03T04:39:14;6.85;;;5.13;;
71202;SDS011;58929;47.490;19.090;2023-04-03T04:41:42;12.23;;;6.72;;
71202;SDS011;58929;47.490;19.090;2023-04-03T04:44:12;6.82;;;4.97;;
71202;SDS011;58929;47.490;19.090;2023-04-03T04:46:40;6.70;;;4.80;;
71202;SDS011;58929;47.490;19.090;2023-04-03T04:49:08;5.72;;;4.40;;
71202;SDS011;58929;47.490;19.090;2023-04-03T04:51:37;7.18;;;5.07;;
71202;SDS011;58929;47.490;19.090;2023-04-03T04:54:21;6.45;;;4.78;;
71202;SDS011;58929;47.490;19.090;2023-04-03T04:56:53;6.85;;;4.93;;
71202;SDS011;58929;47.490;19.090;2023-04-03T04:59:23;9.43;;;5.20;;
71202;SDS011;58929;47.490;19.090;2023-04-03T05:01:53;6.93;;;4.82;;
71202;SDS011;58929;47.490;19.090;2023-04-03T05:04:21;6.68;;;4.93;;
71202;SDS011;58929;47.490;19.090;2023-04-03T05:06:54;8.38;;;5.00;;
71202;SDS011;58929;47.490;19.090;2023-04-03T05:09:26;6.40;;;4.85;;
71202;SDS011;58929;47.490;19.090;2023-04-03T05:11:54;6.80;;;4.88;;
71202;SDS011;58929;47.490;19.090;2023-04-03T05:14:27;5.53;;;4.20;;
71202;SDS011;58929;47.490;19.090;2023-04-03T05:17:00;8.48;;;4.35;;
71202;SDS011;58929;47.490;19.090;2023-04-03T05:19:32;8.23;;;5.00;;
71202;SDS011;58929;47.490;19.090;2023-04-03T05:22:01;7.75;;;4.65;;
71202;SDS011;58929;47.490;19.090;2023-04-03T05:24:29;8.07;;;5.18;;
71202;SDS011;58929;47.490;19.090;2023-04-03T05:26:57;7.30;;;5.03;;
71202;SDS011;58929;47.490;19.090;2023-04-03T05:29:25;6.07;;;4.80;;
71202;SDS011;58929;47.490;19.090;2023-04-03T05:31:56;6.97;;;5.07;;
71202;SDS011;58929;47.490;19.090;2023-04-03T05:34:24;8.10;;;5.45;;
71202;SDS011;58929;47.490;19.090;2023-04-03T05:36:54;8.73;;;5.38;;
71202;SDS011;58929;47.490;19.090;2023-04-03T05:39:22;6.05;;;4.13;;
71202;SDS011;58929;47.490;19.090;2023-04-03T05:41:50;6.40;;;4.35;;
71202;SDS011;58929;47.490;19.090;2023-04-03T05:44:18;8.57;;;4.75;;
71202;SDS011;58929;47.490;19.090;2023-04-03T05:46:48;5.57;;;4.63;;
71202;SDS011;58929;47.490;19.090;2023-04-03T05:49:19;7.03;;;4.80;;
71202;SDS011;58929;47.490;19.090;2023-04-03T05:51:47;8.38;;;4.72;;
71202;SDS011;58929;47.490;19.090;2023-04-03T05:54:22;7.43;;;4.65;;
71202;SDS011;58929;47.490;19.090;2023-04-03T05:56:54;8.52;;;4.50;;
71202;SDS011;58929;47.490;19.090;2023-04-03T05:59:24;7.93;;;5.25;;
71202;SDS011;58929;47.490;19.090;2023-04-03T06:01:54;6.28;;;4.53;;
71202;SDS011;58929;47.490;19.090;2023-04-03T06:04:24;5.93;;;4.95;;
71202;SDS011;58929;47.490;19.090;2023-04-03T06:06:53;7.45;;;4.93;;
71202;SDS011;58929;47.490;19.090;2023-04-03T06:09:23;10.10;;;4.93;;
71202;SDS011;58929;47.490;19.090;2023-04-03T06:11:51;4.72;;;4.22;;
71202;SDS011;58929;47.490;19.090;2023-04-03T06:14:21;5.65;;;4.32;;
71202;SDS011;58929;47.490;19.090;2023-04-03T06:16:49;6.60;;;4.60;;
71202;SDS011;58929;47.490;19.090;2023-04-03T06:19:18;7.20;;;4.20;;
71202;SDS011;58929;47.490;19.090;2023-04-03T06:21:51;6.95;;;4.80;;
71202;SDS011;58929;47.490;19.090;2023-04-03T06:24:19;6.95;;;4.75;;
71202;SDS011;58929;47.490;19.090;2023-04-03T06:26:48;8.93;;;6.22;;
71202;SDS011;58929;47.490;19.090;2023-04-03T06:29:17;6.93;;;4.80;;
71202;SDS011;58929;47.490;19.090;2023-04-03T06:31:48;7.38;;;5.03;;
71202;SDS011;58929;47.490;19.090;2023-04-03T06:34:16;8.40;;;5.30;;
71202;SDS011;58929;47.490;19.090;2023-04-03T06:36:44;5.43;;;4.28;;
71202;SDS011;58929;47.490;19.090;2023-04-03T06:39:14;5.93;;;4.47;;
71202;SDS011;58929;47.490;19.090;2023-04-03T06:41:42;8.07;;;5.03;;
71202;SDS011;58929;47.490;19.090;2023-04-03T06:44:10;6.90;;;4.50;;
71202;SDS011;58929;47.490;19.090;2023-04-03T06:46:40;11.23;;;4.47;;
71202;SDS011;58929;47.490;19.090;2023-04-03T06:49:08;6.13;;;4.32;;
71202;SDS011;58929;47.490;19.090;2023-04-03T06:51:38;6.90;;;3.90;;
71202;SDS011;58929;47.490;19.090;2023-04-03T06:54:09;8.00;;;4.60;;
71202;SDS011;58929;47.490;19.090;2023-04-03T06:56:38;6.28;;;4.75;;
71202;SDS011;58929;47.490;19.090;2023-04-03T06:59:06;5.90;;;4.38;;
71202;SDS011;58929;47.490;19.090;2023-04-03T07:01:35;5.88;;;3.92;;
71202;SDS011;58929;47.490;19.090;2023-04-03T07:04:03;6.28;;;4.40;;
71202;SDS011;58929;47.490;19.090;2023-04-03T07:06:35;6.85;;;4.20;;
71202;SDS011;58929;47.490;19.090;2023-04-03T07:09:03;6.65;;;3.55;;
71202;SDS011;58929;47.490;19.090;2023-04-03T07:11:32;5.50;;;3.13;;
71202;SDS011;58929;47.490;19.090;2023-04-03T07:14:02;3.75;;;3.03;;
71202;SDS011;58929;47.490;19.090;2023-04-03T07:16:30;6.22;;;3.58;;
71202;SDS011;58929;47.490;19.090;2023-04-03T07:18:58;6.47;;;3.60;;
71202;SDS011;58929;47.490;19.090;2023-04-03T07:21:26;8.85;;;6.38;;
71202;SDS011;58929;47.490;19.090;2023-04-03T07:23:55;5.90;;;3.70;;
71202;SDS011;58929;47.490;19.090;2023-04-03T07:26:26;5.60;;;3.30;;
71202;SDS011;58929;47.490;19.090;2023-04-03T07:28:54;9.52;;;3.40;;
71202;SDS011;58929;47.490;19.090;2023-04-03T07:31:23;5.68;;;3.63;;
71202;SDS011;58929;47.490;19.090;2023-04-03T07:33:52;5.50;;;2.85;;
71202;SDS011;58929;47.490;19.090;2023-04-03T07:36:20;3.50;;;2.40;;
71202;SDS011;58929;47.490;19.090;2023-04-03T07:38:49;7.63;;;3.20;;
71202;SDS011;58929;47.490;19.090;2023-04-03T07:41:17;6.07;;;3.50;;
71202;SDS011;58929;47.490;19.090;2023-04-03T07:43:49;4.28;;;3.15;;
71202;SDS011;58929;47.490;19.090;2023-04-03T07:46:18;4.10;;;3.00;;
71202;SDS011;58929;47.490;19.090;2023-04-03T07:48:48;6.00;;;2.70;;
71202;SDS011;58929;47.490;19.090;2023-04-03T07:51:16;2.63;;;2.33;;
71202;SDS011;58929;47.490;19.090;2023-04-03T07:53:45;5.00;;;3.05;;
71202;SDS011;58929;47.490;19.090;2023-04-03T07:56:13;3.53;;;2.60;;
71202;SDS011;58929;47.490;19.090;2023-04-03T07:58:41;5.88;;;2.75;;
71202;SDS011;58929;47.490;19.090;2023-04-03T08:01:10;3.00;;;2.55;;
71202;SDS011;58929;47.490;19.090;2023-04-03T08:03:38;5.60;;;2.67;;
71202;SDS011;58929;47.490;19.090;2023-04-03T08:06:11;5.93;;;2.33;;
71202;SDS011;58929;47.490;19.090;2023-04-03T08:08:43;5.88;;;4.07;;
71202;SDS011;58929;47.490;19.090;2023-04-03T08:11:12;6.22;;;3.53;;
71202;SDS011;58929;47.490;19.090;2023-04-03T08:13:40;4.40;;;2.70;;
71202;SDS011;58929;47.490;19.090;2023-04-03T08:16:10;3.53;;;2.70;;
71202;SDS011;58929;47.490;19.090;2023-04-03T08:18:38;3.38;;;2.83;;
71202;SDS011;58929;47.490;19.090;2023-04-03T08:21:07;5.43;;;3.45;;
71202;SDS011;58929;47.490;19.090;2023-04-03T08:23:36;5.55;;;4.13;;
71202;SDS011;58929;47.490;19.090;2023-04-03T08:26:08;7.50;;;4.43;;
71202;SDS011;58929;47.490;19.090;2023-04-03T08:28:36;3.95;;;3.03;;
71202;SDS011;58929;47.490;19.090;2023-04-03T08:31:04;4.05;;;3.22;;
71202;SDS011;58929;47.490;19.090;2023-04-03T08:33:33;3.10;;;2.60;;
71202;SDS011;58929;47.490;19.090;2023-04-03T08:36:03;3.90;;;3.30;;
71202;SDS011;58929;47.490;19.090;2023-04-03T08:38:31;3.45;;;2.72;;
71202;SDS011;58929;47.490;19.090;2023-04-03T08:41:03;4.97;;;3.08;;
71202;SDS011;58929;47.490;19.090;2023-04-03T08:43:34;3.80;;;2.78;;
71202;SDS011;58929;47.490;19.090;2023-04-03T08:46:05;3.42;;;2.80;;
71202;SDS011;58929;47.490;19.090;2023-04-03T08:48:34;3.10;;;2.72;;
71202;SDS011;58929;47.490;19.090;2023-04-03T08:51:04;2.95;;;2.45;;
71202;SDS011;58929;47.490;19.090;2023-04-03T08:53:39;5.40;;;2.78;;
71202;SDS011;58929;47.490;19.090;2023-04-03T08:56:09;3.38;;;2.40;;
71202;SDS011;58929;47.490;19.090;2023-04-03T08:58:40;3.65;;;2.70;;
71202;SDS011;58929;47.490;19.090;2023-04-03T09:01:14;3.40;;;2.33;;
71202;SDS011;58929;47.490;19.090;2023-04-03T09:03:45;3.17;;;2.30;;
71202;SDS011;58929;47.490;19.090;2023-04-03T09:06:15;3.10;;;2.35;;
71202;SDS011;58929;47.490;19.090;2023-04-03T09:08:45;3.60;;;2.25;;
71202;SDS011;58929;47.490;19.090;2023-04-03T09:11:16;2.40;;;2.20;;
71202;SDS011;58929;47.490;19.090;2023-04-03T09:13:49;4.32;;;1.95;;
71202;SDS011;58929;47.490;19.090;2023-04-03T09:16:25;8.95;;;2.78;;
71202;SDS011;58929;47.490;19.090;2023-04-03T09:18:57;4.13;;;2.08;;
71202;SDS011;58929;47.490;19.090;2023-04-03T09:21:28;4.93;;;3.17;;
71202;SDS011;58929;47.490;19.090;2023-04-03T09:23:58;6.90;;;2.92;;
71202;SDS011;58929;47.490;19.090;2023-04-03T09:26:30;5.43;;;2.63;;
71202;SDS011;58929;47.490;19.090;2023-04-03T09:29:00;2.95;;;2.60;;
71202;SDS011;58929;47.490;19.090;2023-04-03T09:31:32;4.72;;;2.75;;
71202;SDS011;58929;47.490;19.090;2023-04-03T09:34:06;4.47;;;3.05;;
71202;SDS011;58929;47.490;19.090;2023-04-03T09:36:38;3.95;;;2.67;;
71202;SDS011;58929;47.490;19.090;2023-04-03T09:39:08;6.32;;;3.35;;
71202;SDS011;58929;47.490;19.090;2023-04-03T09:41:39;3.60;;;2.10;;
71202;SDS011;58929;47.490;19.090;2023-04-03T09:44:20;3.00;;;2.33;;
71202;SDS011;58929;47.490;19.090;2023-04-03T09:46:49;3.63;;;2.72;;
71202;SDS011;58929;47.490;19.090;2023-04-03T09:49:17;2.65;;;2.10;;
71202;SDS011;58929;47.490;19.090;2023-04-03T09:51:46;4.30;;;2.80;;
71202;SDS011;58929;47.490;19.090;2023-04-03T09:54:33;4.43;;;2.58;;
71202;SDS011;58929;47.490;19.090;2023-04-03T09:57:07;2.75;;;2.40;;
71202;SDS011;58929;47.490;19.090;2023-04-03T09:59:37;2.67;;;2.40;;
71202;SDS011;58929;47.490;19.090;2023-04-03T10:02:17;2.53;;;1.98;;
71202;SDS011;58929;47.490;19.090;2023-04-03T10:04:48;4.38;;;2.42;;
71202;SDS011;58929;47.490;19.090;2023-04-03T10:07:34;5.88;;;2.08;;
71202;SDS011;58929;47.490;19.090;2023-04-03T10:10:15;2.92;;;2.00;;
71202;SDS011;58929;47.490;19.090;2023-04-03T10:12:45;2.30;;;2.10;;
71202;SDS011;58929;47.490;19.090;2023-04-03T10:15:16;3.10;;;2.60;;
71202;SDS011;58929;47.490;19.090;2023-04-03T10:17:51;2.05;;;1.60;;
71202;SDS011;58929;47.490;19.090;2023-04-03T10:20:25;7.13;;;1.85;;
71202;SDS011;58929;47.490;19.090;2023-04-03T10:22:56;2.00;;;1.70;;
71202;SDS011;58929;47.490;19.090;2023-04-03T10:25:29;3.20;;;1.88;;
71202;SDS011;58929;47.490;19.090;2023-04-03T10:28:02;3.33;;;2.35;;
71202;SDS011;58929;47.490;19.090;2023-04-03T10:30:34;2.30;;;1.90;;
71202;SDS011;58929;47.490;19.090;2023-04-03T10:33:08;9.98;;;1.90;;
71202;SDS011;58929;47.490;19.090;2023-04-03T10:35:42;1.65;;;1.40;;
71202;SDS011;58929;47.490;19.090;2023-04-03T10:38:15;2.22;;;1.60;;
71202;SDS011;58929;47.490;19.090;2023-04-03T10:40:46;2.50;;;1.58;;
71202;SDS011;58929;47.490;19.090;2023-04-03T10:43:17;6.22;;;1.42;;
71202;SDS011;58929;47.490;19.090;2023-04-03T10:45:53;2.08;;;1.65;;
71202;SDS011;58929;47.490;19.090;2023-04-03T10:48:30;2.10;;;1.45;;
71202;SDS011;58929;47.490;19.090;2023-04-03T10:51:04;8.93;;;5.60;;
71202;SDS011;58929;47.490;19.090;2023-04-03T10:53:35;1.77;;;1.58;;
71202;SDS011;58929;47.490;19.090;2023-04-03T10:56:06;2.10;;;1.58;;
71202;SDS011;58929;47.490;19.090;2023-04-03T10:58:38;4.82;;;2.55;;
71202;SDS011;58929;47.490;19.090;2023-04-03T11:01:07;3.33;;;2.33;;
71202;SDS011;58929;47.490;19.090;2023-04-03T11:03:38;4.70;;;3.03;;
71202;SDS011;58929;47.490;19.090;2023-04-03T11:06:09;3.78;;;2.40;;
71202;SDS011;58929;47.490;19.090;2023-04-03T11:08:38;5.05;;;2.92;;
71202;SDS011;58929;47.490;19.090;2023-04-03T11:11:11;3.92;;;2.63;;
71202;SDS011;58929;47.490;19.090;2023-04-03T11:13:43;3.00;;;2.17;;
71202;SDS011;58929;47.490;19.090;2023-04-03T11:16:12;2.03;;;1.60;;
71202;SDS011;58929;47.490;19.090;2023-04-03T11:18:43;6.60;;;4.00;;
71202;SDS011;58929;47.490;19.090;2023-04-03T11:21:15;2.20;;;1.83;;
71202;SDS011;58929;47.490;19.090;2023-04-03T11:23:46;1.83;;;1.60;;
71202;SDS011;58929;47.490;19.090;2023-04-03T11:26:16;3.33;;;1.88;;
71202;SDS011;58929;47.490;19.090;2023-04-03T11:28:47;1.95;;;1.60;;
71202;SDS011;58929;47.490;19.090;2023-04-03T11:31:23;6.07;;;2.70;;
71202;SDS011;58929;47.490;19.090;2023-04-03T11:33:55;2.20;;;1.67;;
71202;SDS011;58929;47.490;19.090;2023-04-03T11:36:27;2.55;;;1.73;;
71202;SDS011;58929;47.490;19.090;2023-04-03T11:39:00;4.15;;;1.88;;
71202;SDS011;58929;47.490;19.090;2023-04-03T11:41:29;4.80;;;2.30;;
71202;SDS011;58929;47.490;19.090;2023-04-03T11:44:00;5.70;;;2.22;;
71202;SDS011;58929;47.490;19.090;2023-04-03T11:51:58;3.75;;;1.85;;
71202;SDS011;58929;47.490;19.090;2023-04-03T11:54:42;2.90;;;2.13;;
71202;SDS011;58929;47.490;19.090;2023-04-03T11:59:59;3.38;;;1.70;;
71202;SDS011;58929;47.490;19.090;2023-04-03T12:02:36;1.33;;;1.13;;
71202;SDS011;58929;47.490;19.090;2023-04-03T12:05:26;2.78;;;2.00;;
71202;SDS011;58929;47.490;19.090;2023-04-03T12:10:41;1.33;;;1.23;;
71202;SDS011;58929;47.490;19.090;2023-04-03T12:13:14;1.85;;;1.48;;
71202;SDS011;58929;47.490;19.090;2023-04-03T12:15:49;5.57;;;2.42;;
71202;SDS011;58929;47.490;19.090;2023-04-03T12:21:19;2.42;;;1.80;;
71202;SDS011;58929;47.490;19.090;2023-04-03T12:26:36;5.40;;;2.00;;
71202;SDS011;58929;47.490;19.090;2023-04-03T12:29:18;2.78;;;1.70;;
71202;SDS011;58929;47.490;19.090;2023-04-03T12:31:53;2.08;;;1.80;;
71202;SDS011;58929;47.490;19.090;2023-04-03T12:34:32;3.25;;;2.08;;
71202;SDS011;58929;47.490;19.090;2023-04-03T12:37:06;4.22;;;1.95;;
71202;SDS011;58929;47.490;19.090;2023-04-03T12:39:41;2.47;;;1.90;;
71202;SDS011;58929;47.490;19.090;2023-04-03T12:42:16;5.90;;;3.65;;
71202;SDS011;58929;47.490;19.090;2023-04-03T12:44:52;11.32;;;6.35;;
71202;SDS011;58929;47.490;19.090;2023-04-03T12:47:24;2.42;;;1.75;;
71202;SDS011;58929;47.490;19.090;2023-04-03T12:49:53;1.58;;;1.33;;
71202;SDS011;58929;47.490;19.090;2023-04-03T12:52:29;1.92;;;1.10;;
71202;SDS011;58929;47.490;19.090;2023-04-03T12:54:59;1.10;;;1.00;;
71202;SDS011;58929;47.490;19.090;2023-04-03T12:57:30;1.63;;;1.23;;
71202;SDS011;58929;47.490;19.090;2023-04-03T12:59:59;2.05;;;1.17;;
71202;SDS011;58929;47.490;19.090;2023-04-03T13:02:29;5.35;;;4.00;;
71202;SDS011;58929;47.490;19.090;2023-04-03T13:04:58;2.95;;;2.33;;
71202;SDS011;58929;47.490;19.090;2023-04-03T13:07:28;4.20;;;1.58;;
71202;SDS011;58929;47.490;19.090;2023-04-03T13:10:01;3.30;;;2.33;;
71202;SDS011;58929;47.490;19.090;2023-04-03T13:12:30;2.55;;;1.67;;
71202;SDS011;58929;47.490;19.090;2023-04-03T13:14:59;2.25;;;1.58;;
71202;SDS011;58929;47.490;19.090;2023-04-03T13:17:29;1.60;;;1.20;;
71202;SDS011;58929;47.490;19.090;2023-04-03T13:20:09;2.17;;;1.58;;
71202;SDS011;58929;47.490;19.090;2023-04-03T13:22:38;2.17;;;1.40;;
71202;SDS011;58929;47.490;19.090;2023-04-03T13:25:11;2.15;;;1.33;;
71202;SDS011;58929;47.490;19.090;2023-04-03T13:27:41;2.05;;;1.40;;
71202;SDS011;58929;47.490;19.090;2023-04-03T13:30:20;1.83;;;1.50;;
71202;SDS011;58929;47.490;19.090;2023-04-03T13:32:50;3.10;;;1.40;;
71202;SDS011;58929;47.490;19.090;2023-04-03T13:35:26;4.63;;;1.05;;
71202;SDS011;58929;47.490;19.090;2023-04-03T13:37:55;2.60;;;1.55;;
71202;SDS011;58929;47.490;19.090;2023-04-03T13:40:23;2.95;;;1.23;;
71202;SDS011;58929;47.490;19.090;2023-04-03T13:42:58;3.08;;;2.40;;
71202;SDS011;58929;47.490;19.090;2023-04-03T13:45:27;3.10;;;1.17;;
71202;SDS011;58929;47.490;19.090;2023-04-03T13:48:08;2.67;;;1.45;;
71202;SDS011;58929;47.490;19.090;2023-04-03T13:50:53;3.55;;;1.42;;
71202;SDS011;58929;47.490;19.090;2023-04-03T13:53:22;3.28;;;1.50;;
71202;SDS011;58929;47.490;19.090;2023-04-03T13:55:54;10.20;;;1.50;;
71202;SDS011;58929;47.490;19.090;2023-04-03T13:58:24;3.05;;;1.50;;
71202;SDS011;58929;47.490;19.090;2023-04-03T14:00:53;2.72;;;1.80;;
71202;SDS011;58929;47.490;19.090;2023-04-03T14:03:24;2.95;;;1.58;;
71202;SDS011;58929;47.490;19.090;2023-04-03T14:05:52;1.95;;;1.27;;
71202;SDS011;58929;47.490;19.090;2023-04-03T14:08:21;6.05;;;3.40;;
71202;SDS011;58929;47.490;19.090;2023-04-03T14:11:05;2.72;;;1.48;;
71202;SDS011;58929;47.490;19.090;2023-04-03T14:13:41;1.63;;;1.40;;
71202;SDS011;58929;47.490;19.090;2023-04-03T14:16:12;4.28;;;1.75;;
71202;SDS011;58929;47.490;19.090;2023-04-03T14:18:43;3.00;;;1.52;;
71202;SDS011;58929;47.490;19.090;2023-04-03T14:21:12;2.95;;;1.70;;
71202;SDS011;58929;47.490;19.090;2023-04-03T14:23:40;2.20;;;2.00;;
71202;SDS011;58929;47.490;19.090;2023-04-03T14:26:09;5.60;;;2.42;;
71202;SDS011;58929;47.490;19.090;2023-04-03T14:28:38;3.05;;;2.30;;
71202;SDS011;58929;47.490;19.090;2023-04-03T14:31:09;2.90;;;2.00;;
71202;SDS011;58929;47.490;19.090;2023-04-03T14:33:38;2.92;;;1.42;;
71202;SDS011;58929;47.490;19.090;2023-04-03T14:36:12;2.92;;;1.85;;
71202;SDS011;58929;47.490;19.090;2023-04-03T14:38:41;2.38;;;2.05;;
71202;SDS011;58929;47.490;19.090;2023-04-03T14:41:10;2.42;;;1.70;;
71202;SDS011;58929;47.490;19.090;2023-04-03T14:43:43;3.53;;;1.35;;
71202;SDS011;58929;47.490;19.090;2023-04-03T14:46:12;1.38;;;1.27;;
71202;SDS011;58929;47.490;19.090;2023-04-03T14:48:41;2.88;;;1.40;;
71202;SDS011;58929;47.490;19.090;2023-04-03T14:51:12;1.90;;;1.30;;
71202;SDS011;58929;47.490;19.090;2023-04-03T14:53:40;1.60;;;1.30;;
71202;SDS011;58929;47.490;19.090;2023-04-03T14:56:12;1.77;;;1.10;;
71202;SDS011;58929;47.490;19.090;2023-04-03T14:58:41;1.00;;;0.90;;
71202;SDS011;58929;47.490;19.090;2023-04-03T15:01:11;1.17;;;1.00;;
71202;SDS011;58929;47.490;19.090;2023-04-03T15:03:40;4.85;;;1.58;;
71202;SDS011;58929;47.490;19.090;2023-04-03T15:06:09;2.10;;;1.70;;
71202;SDS011;58929;47.490;19.090;2023-04-03T15:08:39;2.10;;;1.77;;